createdAt,value
2022-08-03T00:29:31.588Z,0
2022-08-03T00:30:12.092Z,0
2022-08-03T00:30:52.591Z,0
2022-08-03T00:36:16.430Z,0
2022-08-03T00:36:56.946Z,0
2022-08-03T00:37:40.555Z,0
2022-08-03T00:38:17.897Z,0
2022-08-03T00:38:58.355Z,0
2022-08-03T00:39:38.826Z,0
2022-08-03T00:40:19.338Z,0
2022-08-03T00:40:59.786Z,0
2022-08-03T00:41:40.245Z,0
2022-08-03T00:42:20.730Z,0
2022-08-03T00:43:01.258Z,0
2022-08-03T00:50:26.467Z,0
2022-08-03T00:51:06.961Z,0
2022-08-03T00:51:47.439Z,0
2022-08-03T00:52:27.951Z,0
2022-08-03T00:53:08.426Z,0
2022-08-03T00:53:48.905Z,0
2022-08-03T00:54:29.445Z,0
2022-08-03T00:55:09.859Z,0
2022-08-03T00:55:50.367Z,0
2022-08-03T00:56:30.820Z,0
2022-08-03T01:04:36.599Z,0
2022-08-03T01:05:17.065Z,0
2022-08-03T01:05:57.562Z,0
2022-08-03T01:06:38.053Z,0
2022-08-03T01:07:18.565Z,0
2022-08-03T01:07:59.050Z,0
2022-08-03T01:08:39.525Z,0
2022-08-03T01:09:20.048Z,0
2022-08-03T01:10:00.552Z,0
2022-08-03T01:10:41.086Z,0
2022-08-03T01:18:06.286Z,0
2022-08-03T01:18:46.759Z,0
2022-08-03T01:19:27.258Z,0
2022-08-03T01:20:07.732Z,0
2022-08-03T01:20:48.194Z,0
2022-08-03T01:21:28.651Z,0
2022-08-03T01:22:09.180Z,0
2022-08-03T01:22:49.610Z,0
2022-08-03T01:23:30.073Z,0
2022-08-03T01:24:10.550Z,0
2022-08-03T01:24:51.039Z,0
2022-08-03T01:32:51.905Z,0
2022-08-03T01:33:00.412Z,0
2022-08-03T01:33:37.301Z,0
2022-08-03T01:34:17.779Z,0
2022-08-03T01:34:58.265Z,0
2022-08-03T01:35:39.156Z,0
2022-08-03T01:36:19.199Z,0
2022-08-03T01:36:59.665Z,0
2022-08-03T01:37:40.206Z,0
2022-08-03T01:38:20.663Z,0
2022-08-03T01:39:01.135Z,0
2022-08-03T01:46:26.341Z,0
2022-08-03T01:47:06.827Z,0
2022-08-03T01:47:47.300Z,0
2022-08-03T01:48:27.777Z,0
2022-08-03T01:49:08.923Z,0
2022-08-03T01:49:48.757Z,0
2022-08-03T01:50:29.181Z,0
2022-08-03T01:51:09.668Z,0
2022-08-03T01:51:57.797Z,0
2022-08-03T01:52:30.621Z,0
2022-08-03T01:53:11.109Z,0
2022-08-03T02:00:36.270Z,0
2022-08-03T02:01:16.792Z,0
2022-08-03T02:02:15.100Z,0
2022-08-03T02:02:38.095Z,0
2022-08-03T02:03:18.208Z,0
2022-08-03T02:04:00.376Z,0
2022-08-03T02:04:39.186Z,0
2022-08-03T02:05:19.673Z,0
2022-08-03T02:06:18.119Z,0
2022-08-03T02:06:55.711Z,0
2022-08-03T02:14:46.274Z,0
2022-08-03T02:15:26.713Z,0
2022-08-03T02:16:07.187Z,0
2022-08-03T02:16:47.713Z,0
2022-08-03T02:17:38.830Z,0
2022-08-03T02:18:08.661Z,0
2022-08-03T02:18:49.186Z,0
2022-08-03T02:19:33.820Z,0
2022-08-03T02:20:10.163Z,0
2022-08-03T02:20:50.600Z,0
2022-08-03T02:21:55.511Z,0
2022-08-03T02:28:56.481Z,0
2022-08-03T02:29:38.618Z,0
2022-08-03T02:30:17.417Z,0
2022-08-03T02:30:57.899Z,0
2022-08-03T02:31:38.312Z,0
2022-08-03T02:32:19.076Z,0
2022-08-03T02:32:59.285Z,0
2022-08-03T02:33:39.754Z,0
2022-08-03T02:34:20.246Z,0
2022-08-03T02:35:00.722Z,0
2022-08-03T02:35:41.179Z,0
2022-08-03T02:43:06.525Z,0
2022-08-03T02:44:05.798Z,0
2022-08-03T02:44:27.572Z,0
2022-08-03T02:45:08.013Z,0
2022-08-03T02:45:48.516Z,0
2022-08-03T02:46:29.017Z,0
2022-08-03T02:47:09.451Z,0
2022-08-03T02:47:53.708Z,0
2022-08-03T02:48:30.401Z,0
2022-08-03T02:49:35.297Z,0
2022-08-03T02:57:16.652Z,0
2022-08-03T02:57:57.123Z,0
2022-08-03T02:58:37.602Z,0
2022-08-03T02:59:18.048Z,0
2022-08-03T02:59:58.536Z,0
2022-08-03T03:00:39.085Z,0
2022-08-03T03:01:19.513Z,0
2022-08-03T03:01:59.951Z,0
2022-08-03T03:02:40.429Z,0
2022-08-03T03:03:20.927Z,0
2022-08-03T03:11:26.573Z,0
2022-08-03T03:12:07.045Z,0
2022-08-03T03:12:47.477Z,0
2022-08-03T03:13:27.939Z,0
2022-08-03T03:14:08.735Z,0
2022-08-03T03:14:48.903Z,0
2022-08-03T03:15:29.357Z,0
2022-08-03T03:16:09.842Z,0
2022-08-03T03:16:50.730Z,0
2022-08-03T03:17:30.824Z,0
2022-08-03T03:25:36.525Z,0
2022-08-03T03:26:17.053Z,0
2022-08-03T03:26:57.501Z,0
2022-08-03T03:27:38.002Z,0
2022-08-03T03:28:18.535Z,0
2022-08-03T03:28:59.008Z,0
2022-08-03T03:31:37.262Z,0
2022-08-03T03:32:17.896Z,0
2022-08-03T03:32:58.119Z,0
2022-08-03T03:33:38.574Z,0
2022-08-03T03:34:19.086Z,0
2022-08-03T03:34:59.556Z,0
2022-08-03T03:35:40.028Z,0
2022-08-03T03:36:20.503Z,0
2022-08-03T03:37:00.999Z,0
2022-08-03T03:37:41.496Z,0
2022-08-03T03:38:21.968Z,0
2022-08-03T03:39:14.273Z,0
2022-08-03T03:39:42.974Z,0
2022-08-03T03:46:28.191Z,0
2022-08-03T03:47:08.704Z,0
2022-08-03T03:47:49.163Z,0
2022-08-03T03:48:29.665Z,0
2022-08-03T03:49:10.198Z,0
2022-08-03T03:49:50.613Z,0
2022-08-03T03:50:31.263Z,0
2022-08-03T03:51:52.139Z,0
2022-08-03T03:52:32.642Z,0
2022-08-03T03:59:58.200Z,0
2022-08-03T04:00:38.797Z,0
2022-08-03T04:01:21.807Z,0
2022-08-03T04:02:02.149Z,0
2022-08-03T04:02:42.743Z,0
2022-08-03T04:09:27.972Z,5
2022-08-03T04:10:14.307Z,5
2022-08-03T04:10:48.986Z,5
2022-08-03T04:11:30.170Z,5
2022-08-03T04:12:10.065Z,5
2022-08-03T04:12:50.786Z,5
2022-08-03T04:15:50.286Z,5
2022-08-03T04:16:30.861Z,10
2022-08-03T04:17:11.482Z,10
2022-08-03T04:21:15.252Z,10
2022-08-03T04:24:56.078Z,15
2022-08-03T04:25:36.517Z,15
2022-08-03T04:26:16.979Z,15
2022-08-03T04:28:59.096Z,15
2022-08-03T04:29:44.865Z,20
2022-08-03T04:30:20.362Z,15
2022-08-03T04:34:00.626Z,20
2022-08-03T04:34:43.530Z,20
2022-08-03T04:35:23.620Z,20
2022-08-03T04:36:04.045Z,25
2022-08-03T04:36:44.536Z,25
2022-08-03T04:38:05.446Z,30
2022-08-03T04:38:45.935Z,35
2022-08-03T04:39:26.624Z,35
2022-08-03T04:40:07.015Z,35
2022-08-03T04:40:47.478Z,30
2022-08-03T04:41:28.069Z,35
2022-08-03T04:42:09.207Z,40
2022-08-03T04:42:49.084Z,40
2022-08-03T04:49:35.046Z,70
2022-08-03T04:50:19.480Z,75
2022-08-03T04:50:56.099Z,75
2022-08-03T04:51:36.617Z,80
2022-08-03T04:52:17.443Z,80
2022-08-03T04:52:57.578Z,80
2022-08-03T04:53:38.019Z,80
2022-08-03T04:54:18.590Z,80
2022-08-03T04:54:59.224Z,85
2022-08-03T05:02:24.586Z,80
2022-08-03T05:03:19.390Z,95
2022-08-03T05:03:45.829Z,85
2022-08-03T05:07:26.459Z,75
2022-08-03T05:08:11.015Z,90
2022-08-03T05:08:48.752Z,105
2022-08-03T05:09:33.505Z,115
2022-08-03T05:10:15.263Z,120
2022-08-03T05:10:51.973Z,125
2022-08-03T05:11:33.095Z,130
2022-08-03T05:12:14.500Z,135
2022-08-03T05:16:20.388Z,130
2022-08-03T05:17:01.435Z,110
2022-08-03T05:17:42.728Z,105
2022-08-03T05:18:23.861Z,120
2022-08-03T05:22:30.208Z,125
2022-08-03T05:23:11.347Z,100
2022-08-03T05:23:52.954Z,120
2022-08-03T05:24:33.862Z,140
2022-08-03T05:25:59.943Z,175
2022-08-03T05:26:40.922Z,130
2022-08-03T05:27:21.992Z,140
2022-08-03T05:28:03.058Z,195
2022-08-03T05:28:51.130Z,190
2022-08-03T05:34:22.096Z,220
2022-08-03T05:35:56.332Z,225
2022-08-03T05:35:56.356Z,230
2022-08-03T05:40:27.313Z,230
2022-08-03T05:41:20.699Z,235
2022-08-03T05:41:48.530Z,250
2022-08-03T05:42:29.050Z,265
2022-08-03T05:43:09.728Z,270
2022-08-03T05:43:50.299Z,275
2022-08-03T05:44:30.745Z,280
2022-08-03T05:45:11.586Z,280
2022-08-03T05:51:59.912Z,370
2022-08-03T05:52:37.531Z,375
2022-08-03T06:33:22.073Z,0
2022-08-03T06:35:57.950Z,0
2022-08-03T06:36:38.790Z,0
2022-08-03T06:37:19.726Z,0
2022-08-03T06:38:00.806Z,0
2022-08-03T06:38:41.985Z,0
2022-08-03T06:39:23.924Z,0
2022-08-03T06:40:04.382Z,0
2022-08-03T06:40:45.326Z,0
2022-08-03T06:44:11.235Z,0
2022-08-03T06:44:52.277Z,0
2022-08-03T06:45:33.296Z,0
2022-08-03T06:46:14.415Z,0
2022-08-03T06:46:55.533Z,0
2022-08-03T06:50:25.797Z,0
2022-08-03T06:51:02.506Z,0
2022-08-03T06:52:04.757Z,0
2022-08-03T06:52:37.308Z,0
2022-08-03T06:53:05.871Z,0
2022-08-03T06:56:31.342Z,0
2022-08-03T06:57:12.437Z,0
2022-08-03T06:57:53.554Z,0
2022-08-03T06:58:34.738Z,0
2022-08-03T07:00:06.803Z,0
2022-08-03T07:02:00.765Z,0
2022-08-03T07:02:42.670Z,0
2022-08-03T07:03:22.895Z,0
2022-08-03T07:04:04.107Z,0
2022-08-03T07:04:45.148Z,0
2022-08-03T07:07:42.061Z,0
2022-08-03T07:08:33.332Z,0
2022-08-03T07:09:04.882Z,0
2022-08-03T07:10:27.996Z,0
2022-08-03T07:11:08.721Z,0
2022-08-03T07:11:49.196Z,0
2022-08-03T07:12:29.854Z,0
2022-08-03T07:13:10.379Z,0
2022-08-03T07:18:55.754Z,0
2022-08-03T07:19:36.366Z,0
2022-08-03T07:20:18.724Z,0
2022-08-03T07:20:59.950Z,0
2022-08-03T07:21:41.266Z,0
2022-08-03T07:22:22.373Z,0
2022-08-03T07:26:21.989Z,0
2022-08-03T07:27:03.195Z,0
2022-08-03T07:27:43.750Z,0
2022-08-03T07:28:24.306Z,0
2022-08-03T07:29:10.925Z,0
2022-08-03T07:29:45.663Z,0
2022-08-03T07:31:53.241Z,0
2022-08-03T07:32:33.955Z,0
2022-08-03T07:33:15.323Z,0
2022-08-03T07:33:55.874Z,0
2022-08-03T07:37:32.225Z,0
2022-08-03T07:38:13.197Z,0
2022-08-03T07:38:54.448Z,0
2022-08-03T07:39:35.595Z,0
2022-08-03T07:42:55.667Z,0
2022-08-03T07:43:36.138Z,0
2022-08-03T07:44:16.637Z,0
2022-08-03T07:44:57.235Z,0
2022-08-03T07:48:20.088Z,0
2022-08-03T07:49:00.682Z,0
2022-08-03T07:49:41.329Z,0
2022-08-03T07:50:22.863Z,0
2022-08-03T07:51:03.377Z,0
2022-08-03T07:51:43.881Z,0
2022-08-03T07:52:24.433Z,0
2022-08-03T07:53:04.941Z,0
2022-08-03T07:58:30.230Z,0
2022-08-03T07:59:10.762Z,0
2022-08-03T07:59:57.054Z,0
2022-08-03T08:00:31.894Z,0
2022-08-03T08:01:14.965Z,0
2022-08-03T08:01:53.844Z,0
2022-08-03T08:02:34.382Z,0
2022-08-03T08:03:14.978Z,0
2022-08-03T08:08:00.181Z,0
2022-08-03T08:08:40.702Z,0
2022-08-03T08:09:21.290Z,0
2022-08-03T08:10:01.806Z,0
2022-08-03T08:10:42.306Z,0
2022-08-03T08:11:23.151Z,0
2022-08-03T08:12:05.265Z,0
2022-08-03T08:22:03.528Z,0
2022-08-03T08:22:44.063Z,0
2022-08-03T08:23:41.552Z,0
2022-08-03T08:28:22.052Z,0
2022-08-03T08:28:22.114Z,0
2022-08-03T08:28:51.498Z,0
2022-08-03T08:29:31.912Z,0
2022-08-03T08:30:14.917Z,0
2022-08-03T08:30:52.913Z,0
2022-08-03T08:31:33.403Z,0
2022-08-03T08:35:00.447Z,0
2022-08-03T08:35:41.021Z,0
2022-08-03T08:36:22.120Z,0
2022-08-03T08:37:03.464Z,0
2022-08-03T08:43:08.995Z,0
2022-08-03T08:46:45.654Z,0
2022-08-03T08:47:26.450Z,0
2022-08-03T08:48:08.402Z,0
2022-08-03T08:48:48.954Z,0
2022-08-03T08:49:29.550Z,0
2022-08-03T08:50:27.564Z,0
2022-08-03T08:50:50.757Z,0
2022-08-03T08:51:43.895Z,0
2022-08-03T08:52:22.187Z,0
2022-08-03T08:52:52.362Z,0
2022-08-03T08:53:33.004Z,0
2022-08-03T09:00:18.541Z,0
2022-08-03T09:00:59.153Z,0
2022-08-03T09:01:39.704Z,0
2022-08-03T09:02:20.224Z,0
2022-08-03T09:03:00.647Z,0
2022-08-03T09:03:41.122Z,0
2022-08-03T09:04:21.825Z,0
2022-08-03T09:05:06.989Z,0
2022-08-03T09:05:55.656Z,0
2022-08-03T09:10:01.375Z,0
2022-08-03T09:10:28.928Z,0
2022-08-03T09:11:09.416Z,0
2022-08-03T09:11:51.461Z,0
2022-08-03T09:12:41.778Z,0
2022-08-03T09:13:11.677Z,0
2022-08-03T09:13:52.219Z,0
2022-08-03T09:14:37.190Z,0
2022-08-03T09:15:17.345Z,0
2022-08-03T09:20:11.156Z,0
2022-08-03T09:20:51.362Z,0
2022-08-03T09:21:34.912Z,0
2022-08-03T09:22:16.952Z,0
2022-08-03T09:22:57.949Z,0
2022-08-03T09:24:40.510Z,0
2022-08-03T09:25:24.158Z,0
2022-08-03T09:25:47.186Z,0
2022-08-03T09:26:27.831Z,0
2022-08-03T09:27:08.492Z,0
2022-08-03T09:27:49.048Z,0
2022-08-03T09:33:14.698Z,0
2022-08-03T09:33:55.344Z,0
2022-08-03T09:34:35.970Z,0
2022-08-03T09:35:23.768Z,0
2022-08-03T09:35:57.727Z,0
2022-08-03T09:36:37.720Z,0
2022-08-03T09:37:18.481Z,0
2022-08-03T09:38:11.944Z,0
2022-08-03T09:43:24.548Z,0
2022-08-03T09:47:04.301Z,0
2022-08-03T09:47:45.299Z,0
2022-08-03T09:48:25.399Z,0
2022-08-03T09:52:33.414Z,0
2022-08-03T09:53:09.853Z,0
2022-08-03T09:53:57.319Z,0
2022-08-03T09:54:30.943Z,0
2022-08-03T09:56:01.587Z,0
2022-08-03T09:56:31.051Z,0
2022-08-03T09:56:36.577Z,0
2022-08-03T09:57:13.308Z,0
2022-08-03T10:04:39.886Z,0
2022-08-03T10:05:20.434Z,0
2022-08-03T10:06:02.037Z,0
2022-08-03T10:08:30.822Z,0
2022-08-03T10:09:12.146Z,0
2022-08-03T10:09:54.025Z,0
2022-08-03T10:10:34.993Z,0
2022-08-03T10:11:16.081Z,0
2022-08-03T10:11:57.322Z,0
2022-08-03T10:12:38.170Z,0
2022-08-03T10:16:20.804Z,0
2022-08-03T10:16:20.950Z,0
2022-08-03T10:16:38.154Z,0
2022-08-03T10:21:21.909Z,0
2022-08-03T10:22:02.383Z,0
2022-08-03T10:22:42.999Z,0
2022-08-03T10:23:24.305Z,0
2022-08-03T10:24:04.801Z,0
2022-08-03T10:24:45.302Z,0
2022-08-03T10:25:33.099Z,0
2022-08-03T10:26:06.483Z,0
2022-08-03T10:32:12.337Z,0
2022-08-03T10:32:52.899Z,0
2022-08-03T10:33:50.398Z,0
2022-08-03T10:34:13.940Z,0
2022-08-03T10:34:59.161Z,0
2022-08-03T10:35:34.999Z,0
2022-08-03T10:36:15.575Z,0
2022-08-03T10:36:56.114Z,0
2022-08-03T10:37:36.639Z,0
2022-08-03T10:44:21.844Z,0
2022-08-03T10:45:02.348Z,0
2022-08-03T10:45:42.865Z,0
2022-08-03T10:46:23.335Z,0
2022-08-03T10:47:04.798Z,0
2022-08-03T10:47:45.393Z,0
2022-08-03T10:48:25.922Z,0
2022-08-03T10:49:06.391Z,0
2022-08-03T10:55:11.630Z,0
2022-08-03T10:55:52.851Z,0
2022-08-03T10:56:35.752Z,0
2022-08-03T10:58:35.866Z,0
2022-08-03T10:59:27.395Z,0
2022-08-03T10:59:57.303Z,0
2022-08-03T11:00:38.199Z,0
2022-08-03T11:01:18.698Z,0
2022-08-03T11:04:28.949Z,0
2022-08-03T11:05:09.292Z,0
2022-08-03T11:05:49.830Z,0
2022-08-03T11:10:33.492Z,0
2022-08-03T11:11:14.077Z,0
2022-08-03T11:11:54.606Z,0
2022-08-03T11:12:35.138Z,0
2022-08-03T11:13:16.782Z,0
2022-08-03T11:13:57.075Z,0
2022-08-03T11:14:36.730Z,0
2022-08-03T11:15:17.782Z,0
2022-08-03T11:15:59.773Z,0
2022-08-03T11:22:43.516Z,0
2022-08-03T11:24:02.403Z,0
2022-08-03T11:24:06.577Z,0
2022-08-03T11:24:45.167Z,0
2022-08-03T11:25:34.812Z,0
2022-08-03T11:26:06.168Z,0
2022-08-03T11:26:46.697Z,0
2022-08-03T11:27:27.216Z,0
2022-08-03T11:28:07.707Z,0
2022-08-03T11:34:53.614Z,0
2022-08-03T11:35:34.155Z,0
2022-08-03T11:36:14.690Z,0
2022-08-03T11:36:55.329Z,0
2022-08-03T11:37:36.359Z,0
2022-08-03T11:38:16.875Z,0
2022-08-03T11:38:57.407Z,0
2022-08-03T11:39:37.999Z,0
2022-08-03T11:46:28.833Z,0
2022-08-03T11:47:04.088Z,0
2022-08-03T11:47:50.344Z,0
2022-08-03T11:48:25.239Z,0
2022-08-03T11:49:09.722Z,0
2022-08-03T11:49:46.283Z,0
2022-08-03T11:51:07.320Z,0
2022-08-03T11:51:47.888Z,0
2022-08-03T12:32:23.874Z,50
2022-08-03T12:33:03.458Z,50
2022-08-03T12:33:44.097Z,50
2022-08-03T12:37:47.387Z,45
2022-08-03T12:38:27.867Z,45
2022-08-03T12:39:08.376Z,45
2022-08-03T12:40:00.796Z,40
2022-08-03T12:40:29.395Z,45
2022-08-03T12:41:10.250Z,45
2022-08-03T12:41:50.732Z,45
2022-08-03T12:42:31.263Z,45
2022-08-03T12:43:11.784Z,45
2022-08-03T12:49:57.932Z,45
2022-08-03T12:50:38.923Z,45
2022-08-03T12:51:19.552Z,45
2022-08-03T12:52:04.032Z,45
2022-08-03T12:52:40.655Z,45
2022-08-03T12:53:21.368Z,45
2022-08-03T12:54:01.941Z,45
2022-08-03T12:59:32.407Z,25
2022-08-03T13:00:17.516Z,25
2022-08-03T13:00:48.970Z,25
2022-08-03T13:01:29.585Z,25
2022-08-03T13:03:38.752Z,25
2022-08-03T13:04:18.016Z,30
2022-08-03T13:04:54.757Z,50
2022-08-03T13:05:35.265Z,50
2022-08-03T13:09:00.031Z,45
2022-08-03T13:09:40.362Z,45
2022-08-03T13:10:21.995Z,45
2022-08-03T13:11:02.478Z,45
2022-08-03T13:11:47.696Z,45
2022-08-03T13:12:23.595Z,45
2022-08-03T13:19:52.330Z,45
2022-08-03T13:20:33.605Z,45
2022-08-03T13:25:19.082Z,45
2022-08-03T13:25:59.930Z,45
2022-08-03T13:26:40.437Z,45
2022-08-03T13:27:23.356Z,45
2022-08-03T13:28:05.869Z,45
2022-08-03T13:28:42.277Z,45
2022-08-03T13:32:17.596Z,45
2022-08-03T13:32:57.953Z,45
2022-08-03T13:33:38.443Z,45
2022-08-03T13:37:42.487Z,45
2022-08-03T13:38:26.896Z,45
2022-08-03T13:39:03.550Z,45
2022-08-03T13:39:48.351Z,45
2022-08-03T13:40:30.661Z,45
2022-08-03T13:41:05.271Z,45
2022-08-03T13:41:45.704Z,45
2022-08-03T13:42:26.187Z,45
2022-08-03T13:43:06.731Z,45
2022-08-03T13:47:52.462Z,45
2022-08-03T13:48:36.062Z,45
2022-08-03T13:49:14.343Z,45
2022-08-03T13:50:00.630Z,45
2022-08-03T13:50:37.597Z,45
2022-08-03T13:51:21.771Z,45
2022-08-03T13:56:41.812Z,45
2022-08-03T13:58:11.562Z,45
2022-08-03T13:58:11.692Z,45
2022-08-03T13:58:44.011Z,45
2022-08-03T13:59:24.537Z,45
2022-08-03T14:00:05.042Z,45
2022-08-03T14:00:45.563Z,45
2022-08-03T14:01:53.882Z,45
2022-08-03T14:02:06.692Z,45
2022-08-03T14:08:51.857Z,45
2022-08-03T14:09:32.409Z,45
2022-08-03T14:10:12.954Z,45
2022-08-03T14:10:53.487Z,45
2022-08-03T14:12:04.242Z,45
2022-08-03T14:12:14.503Z,45
2022-08-03T14:12:55.694Z,45
2022-08-03T14:13:36.204Z,45
2022-08-03T14:14:16.753Z,45
2022-08-03T14:21:05.730Z,35
2022-08-03T14:21:42.649Z,35
2022-08-03T14:22:23.206Z,35
2022-08-03T14:23:03.711Z,35
2022-08-03T14:23:44.360Z,35
2022-08-03T14:24:24.893Z,35
2022-08-03T14:25:05.376Z,30
2022-08-03T14:25:50.642Z,30
2022-08-03T14:32:32.065Z,40
2022-08-03T14:33:12.623Z,40
2022-08-03T14:33:53.110Z,40
2022-08-03T14:34:33.630Z,40
2022-08-03T14:35:14.205Z,40
2022-08-03T14:35:54.642Z,40
2022-08-03T14:36:35.122Z,40
2022-08-03T14:37:15.612Z,40
2022-08-03T14:37:56.187Z,40
2022-08-03T14:38:36.661Z,40
2022-08-03T14:44:15.380Z,40
2022-08-03T14:45:00.689Z,40
2022-08-03T14:45:36.357Z,40
2022-08-03T14:50:10.782Z,35
2022-08-03T14:50:35.164Z,35
2022-08-03T14:50:35.421Z,35
2022-08-03T14:51:00.319Z,35
2022-08-03T14:51:41.004Z,35
2022-08-03T14:52:21.403Z,35
2022-08-03T14:53:04.807Z,35
2022-08-03T14:53:42.379Z,35
2022-08-03T14:54:22.910Z,35
2022-08-03T14:55:03.416Z,35
2022-08-03T15:02:01.854Z,35
2022-08-03T15:02:29.232Z,35
2022-08-03T15:03:09.812Z,35
2022-08-03T15:03:50.205Z,35
2022-08-03T15:07:10.379Z,35
2022-08-03T15:07:50.863Z,35
2022-08-03T15:08:31.379Z,35
2022-08-03T15:11:54.865Z,35
2022-08-03T15:12:35.388Z,35
2022-08-03T15:13:16.015Z,30
2022-08-03T15:13:56.355Z,30
2022-08-03T15:14:37.778Z,30
2022-08-03T15:15:17.337Z,35
2022-08-03T15:15:57.851Z,35
2022-08-03T15:16:38.344Z,35
2022-08-03T15:17:19.058Z,35
2022-08-03T15:17:59.979Z,35
2022-08-03T15:23:24.782Z,35
2022-08-03T15:24:05.257Z,35
2022-08-03T15:24:45.763Z,35
2022-08-03T15:26:01.973Z,35
2022-08-03T15:26:30.159Z,35
2022-08-03T15:26:47.338Z,35
2022-08-03T15:28:08.370Z,35
2022-08-03T15:28:48.864Z,35
2022-08-03T15:30:06.283Z,30
2022-08-03T15:36:54.879Z,20
2022-08-03T15:37:35.416Z,20
2022-08-03T15:38:15.909Z,20
2022-08-03T15:38:56.465Z,25
2022-08-03T15:39:58.493Z,25
2022-08-03T15:40:18.178Z,25
2022-08-03T15:40:58.671Z,25
2022-08-03T15:41:39.189Z,25
2022-08-03T15:48:26.412Z,30
2022-08-03T15:49:05.525Z,30
2022-08-03T15:49:46.032Z,30
2022-08-03T15:50:26.464Z,25
2022-08-03T15:51:06.970Z,30
2022-08-03T15:51:47.490Z,30
2022-08-03T15:53:08.465Z,30
2022-08-03T15:53:49.017Z,30
2022-08-03T15:54:29.502Z,30
2022-08-03T16:01:19.240Z,30
2022-08-03T16:01:55.271Z,30
2022-08-03T16:02:35.717Z,30
2022-08-03T16:03:16.321Z,30
2022-08-03T16:03:56.791Z,30
2022-08-03T16:04:37.310Z,30
2022-08-03T16:05:17.788Z,30
2022-08-03T16:05:58.463Z,30
2022-08-03T16:06:38.982Z,30
2022-08-03T16:07:19.681Z,30
2022-08-03T16:12:45.208Z,30
2022-08-03T16:14:04.870Z,30
2022-08-03T16:14:13.944Z,30
2022-08-03T16:14:55.192Z,30
2022-08-03T16:15:28.336Z,30
2022-08-03T16:16:09.452Z,30
2022-08-03T16:22:14.960Z,30
2022-08-03T16:22:55.440Z,30
2022-08-03T16:23:35.945Z,30
2022-08-03T16:24:17.434Z,30
2022-08-03T16:24:56.942Z,30
2022-08-03T16:25:37.461Z,30
2022-08-03T16:26:17.938Z,30
2022-08-03T16:26:58.442Z,30
2022-08-03T16:27:58.292Z,30
2022-08-03T16:28:19.695Z,30
2022-08-03T16:35:04.741Z,30
2022-08-03T16:35:45.220Z,30
2022-08-03T16:36:25.678Z,30
2022-08-03T16:37:22.410Z,30
2022-08-03T16:37:51.894Z,30
2022-08-03T16:38:27.241Z,30
2022-08-03T16:39:07.998Z,30
2022-08-03T16:41:53.369Z,25
2022-08-03T16:42:17.744Z,25
2022-08-03T16:42:58.177Z,25
2022-08-03T16:47:41.949Z,25
2022-08-03T16:48:22.419Z,25
2022-08-03T16:49:02.899Z,25
2022-08-03T16:49:53.627Z,25
2022-08-03T16:50:23.873Z,25
2022-08-03T16:51:04.407Z,25
2022-08-03T16:51:50.183Z,25
2022-08-03T16:52:25.464Z,25
2022-08-03T16:53:05.919Z,25
2022-08-03T16:54:02.627Z,25
2022-08-03T16:59:12.216Z,25
2022-08-03T16:59:52.109Z,25
2022-08-03T17:00:33.479Z,25
2022-08-03T17:01:22.670Z,25
2022-08-03T17:02:10.090Z,25
2022-08-03T17:02:48.136Z,25
2022-08-03T17:03:26.811Z,25
2022-08-03T17:04:07.351Z,25
2022-08-03T17:10:12.421Z,25
2022-08-03T17:10:52.784Z,25
2022-08-03T17:11:33.377Z,25
2022-08-03T17:12:13.873Z,20
2022-08-03T17:12:54.346Z,20
2022-08-03T17:13:39.019Z,20
2022-08-03T17:14:55.854Z,20
2022-08-03T17:15:37.863Z,20
2022-08-03T17:16:16.762Z,20
2022-08-03T17:20:29.772Z,20
2022-08-03T17:21:02.933Z,20
2022-08-03T17:21:43.403Z,20
2022-08-03T17:22:24.100Z,20
2022-08-03T17:28:42.930Z,20
2022-08-03T17:28:42.935Z,20
2022-08-03T17:29:11.094Z,15
2022-08-03T17:29:49.986Z,20
2022-08-03T17:30:30.512Z,20
2022-08-03T17:31:22.814Z,20
2022-08-03T17:31:51.593Z,20
2022-08-03T17:32:32.127Z,20
2022-08-03T17:33:18.774Z,20
2022-08-03T17:39:59.334Z,15
2022-08-03T17:40:38.461Z,15
2022-08-03T17:41:19.033Z,15
2022-08-03T17:41:59.699Z,15
2022-08-03T17:42:40.102Z,15
2022-08-03T17:44:08.223Z,15
2022-08-03T17:44:14.678Z,15
2022-08-03T17:44:46.491Z,15
2022-08-03T17:50:47.928Z,15
2022-08-03T17:51:28.488Z,15
2022-08-03T17:52:10.018Z,15
2022-08-03T17:52:49.790Z,15
2022-08-03T18:34:41.037Z,5
2022-08-03T18:35:18.336Z,5
2022-08-03T18:35:58.838Z,5
2022-08-03T18:36:39.326Z,5
2022-08-03T18:41:32.051Z,5
2022-08-03T18:42:03.332Z,5
2022-08-03T18:42:51.006Z,5
2022-08-03T18:43:46.798Z,5
2022-08-03T18:44:07.514Z,5
2022-08-03T18:44:53.767Z,5
2022-08-03T18:45:55.501Z,0
2022-08-03T18:46:06.297Z,0
2022-08-03T18:46:46.723Z,0
2022-08-03T18:47:27.215Z,0
2022-08-03T18:54:59.277Z,0
2022-08-03T18:55:35.382Z,0
2022-08-03T18:56:13.775Z,0
2022-08-03T18:56:54.296Z,0
2022-08-03T18:57:35.058Z,0
2022-08-03T18:58:15.679Z,0
2022-08-03T18:58:55.868Z,0
2022-08-03T19:00:16.853Z,0
2022-08-03T19:00:57.516Z,0
2022-08-03T19:07:42.437Z,0
2022-08-03T19:08:22.958Z,0
2022-08-03T19:09:03.502Z,0
2022-08-03T19:09:44.001Z,0
2022-08-03T19:10:24.490Z,0
2022-08-03T19:11:06.011Z,0
2022-08-03T19:12:11.341Z,0
2022-08-03T19:12:30.879Z,0
2022-08-03T19:13:11.421Z,0
2022-08-03T19:13:50.139Z,0
2022-08-03T19:20:32.832Z,0
2022-08-03T19:21:15.834Z,0
2022-08-03T19:21:53.857Z,0
2022-08-03T19:22:34.433Z,0
2022-08-03T19:23:14.915Z,0
2022-08-03T19:23:55.513Z,0
2022-08-03T19:24:35.976Z,0
2022-08-03T19:25:16.479Z,0
2022-08-03T19:33:22.902Z,0
2022-08-03T19:34:03.146Z,0
2022-08-03T19:34:46.682Z,0
2022-08-03T19:35:46.492Z,0
2022-08-03T19:36:08.715Z,0
2022-08-03T19:36:45.094Z,0
2022-08-03T19:37:25.621Z,0
2022-08-03T19:38:06.086Z,0
2022-08-03T19:43:25.414Z,0
2022-08-03T19:44:05.727Z,0
2022-08-03T19:44:46.847Z,0
2022-08-03T19:48:11.074Z,0
2022-08-03T19:48:51.597Z,0
2022-08-03T19:50:05.396Z,0
2022-08-03T19:50:13.913Z,0
2022-08-03T19:50:53.997Z,0
2022-08-03T19:57:39.185Z,0
2022-08-03T19:58:24.450Z,0
2022-08-03T19:59:00.148Z,0
2022-08-03T19:59:42.306Z,0
2022-08-03T20:00:26.341Z,0
2022-08-03T20:01:19.718Z,0
2022-08-03T20:01:50.183Z,0
2022-08-03T20:02:25.949Z,0
2022-08-03T20:03:03.266Z,0
2022-08-03T20:03:43.739Z,0
2022-08-03T20:11:09.332Z,0
2022-08-03T20:11:49.756Z,0
2022-08-03T20:12:33.147Z,0
2022-08-03T20:13:10.844Z,0
2022-08-03T20:13:51.283Z,0
2022-08-03T20:14:31.783Z,0
2022-08-03T20:15:12.288Z,0
2022-08-03T20:15:53.284Z,0
2022-08-03T20:17:13.824Z,0
2022-08-03T20:23:19.323Z,0
2022-08-03T20:24:02.129Z,0
2022-08-03T20:24:40.264Z,0
2022-08-03T20:25:21.525Z,0
2022-08-03T20:26:02.110Z,0
2022-08-03T20:26:42.502Z,0
2022-08-03T20:27:23.023Z,0
2022-08-03T20:28:06.778Z,0
2022-08-03T20:28:49.975Z,0
2022-08-03T20:35:29.065Z,0
2022-08-03T20:36:10.279Z,0
2022-08-03T20:36:50.088Z,0
2022-08-03T20:37:30.571Z,0
2022-08-03T20:38:11.059Z,0
2022-08-03T20:38:52.129Z,0
2022-08-03T20:39:32.103Z,0
2022-08-03T20:40:12.559Z,0
2022-08-03T20:40:53.045Z,0
2022-08-03T20:41:33.601Z,0
2022-08-03T20:42:14.107Z,0
2022-08-03T20:48:59.617Z,0
2022-08-03T20:49:44.010Z,0
2022-08-03T20:50:20.235Z,0
2022-08-03T20:51:00.810Z,0
2022-08-03T20:51:49.282Z,0
2022-08-03T20:52:22.032Z,0
2022-08-03T20:53:02.796Z,0
2022-08-03T20:53:57.565Z,0
2022-08-03T20:54:29.043Z,0
2022-08-03T20:55:03.902Z,0
2022-08-03T21:01:40.020Z,0
2022-08-03T21:02:29.336Z,0
2022-08-03T21:03:01.208Z,0
2022-08-03T21:03:52.452Z,0
2022-08-03T21:07:45.770Z,0
2022-08-03T21:08:25.276Z,0
2022-08-03T21:09:05.736Z,0
2022-08-03T21:09:49.374Z,0
2022-08-03T21:10:27.938Z,0
2022-08-03T21:11:07.350Z,0
2022-08-03T21:11:47.838Z,0
2022-08-03T21:12:28.815Z,0
2022-08-03T21:13:06.313Z,0
2022-08-03T21:13:16.606Z,0
2022-08-03T21:13:49.370Z,0
2022-08-03T21:21:14.712Z,0
2022-08-03T21:21:55.198Z,0
2022-08-03T21:22:35.702Z,0
2022-08-03T21:23:35.290Z,0
2022-08-03T21:23:56.699Z,0
2022-08-03T21:24:37.240Z,0
2022-08-03T21:25:17.689Z,0
2022-08-03T21:25:58.166Z,0
2022-08-03T21:26:38.660Z,0
2022-08-03T21:27:19.362Z,0
2022-08-03T21:27:59.569Z,0
2022-08-03T21:35:25.042Z,0
2022-08-03T21:36:05.547Z,0
2022-08-03T21:36:46.036Z,0
2022-08-03T21:37:26.491Z,0
2022-08-03T21:38:07.020Z,0
2022-08-03T21:38:56.070Z,0
2022-08-03T21:39:28.061Z,0
2022-08-03T21:40:08.518Z,0
2022-08-03T21:42:21.138Z,0
2022-08-03T21:43:01.672Z,0
2022-08-03T21:43:42.189Z,0
2022-08-03T21:49:51.678Z,0
2022-08-03T21:49:52.267Z,0
2022-08-03T21:50:27.097Z,0
2022-08-03T21:51:07.543Z,0
2022-08-03T21:51:48.038Z,0
2022-08-03T21:52:28.537Z,0
2022-08-03T21:53:09.085Z,0
2022-08-03T21:54:00.496Z,0
2022-08-03T21:54:30.064Z,0
2022-08-03T21:55:18.254Z,0
2022-08-03T22:02:36.065Z,0
2022-08-03T22:03:17.495Z,0
2022-08-03T22:03:57.092Z,0
2022-08-03T22:04:50.511Z,0